Time;durP1;ratioP1;P1;durP2;ratioP2;P2;SDS_P1;SDS_P2;PMS_P1;PMS_P2;Temp;Humidity;BMP_temperature;BMP_pressure;BME280_temperature;BME280_humidity;BME280_pressure;Samples;Min_cycle;Max_cycle;Signal;HPM_P1;HPM_P2
2024/03/07 00:00:44;;;;;;;58.53;28.05;;;;;;;9.60;59.48;102505.94;4907210;28;114496;-70
2024/03/07 00:03:12;;;;;;;54.95;28.50;;;;;;;9.58;59.44;102507.72;4902055;28;124077;-70
2024/03/07 00:05:39;;;;;;;59.40;29.25;;;;;;;9.57;59.50;102503.31;4928382;28;123079;-70
2024/03/07 00:08:07;;;;;;;53.33;28.67;;;;;;;9.53;59.62;102506.03;4907135;28;115258;-69
2024/03/07 00:10:36;;;;;;;60.72;29.23;;;;;;;9.49;59.67;102504.34;4912725;28;114010;-70
2024/03/07 00:13:03;;;;;;;60.33;29.70;;;;;;;9.46;59.69;102509.66;4905241;28;124423;-69
2024/03/07 00:15:31;;;;;;;61.45;30.38;;;;;;;9.44;59.59;102510.56;4912024;28;123426;-70
2024/03/07 00:18:00;;;;;;;55.22;29.58;;;;;;;9.42;59.45;102507.94;4899543;28;114731;-69
2024/03/07 00:20:28;;;;;;;54.08;28.88;;;;;;;9.40;59.54;102509.75;4913079;28;113857;-70
2024/03/07 00:22:55;;;;;;;57.20;29.15;;;;;;;9.39;59.28;102507.97;4906687;28;124775;-70
2024/03/07 00:25:23;;;;;;;56.83;29.38;;;;;;;9.37;59.58;102512.41;4907055;28;123761;-69
2024/03/07 00:27:52;;;;;;;59.80;29.17;;;;;;;9.36;59.42;102521.22;4908138;28;115441;-69
2024/03/07 00:30:20;;;;;;;56.60;29.73;;;;;;;9.33;59.41;102523.94;4906549;28;114079;-70
2024/03/07 00:32:51;;;;;;;59.15;30.30;;;;;;;9.30;59.31;102513.38;4905249;28;123780;-69
2024/03/07 00:35:20;;;;;;;57.70;27.88;;;;;;;9.26;59.32;102511.69;4906559;28;123822;-70
2024/03/07 00:37:48;;;;;;;61.15;28.50;;;;;;;9.22;59.28;102512.63;4913084;28;114208;-70
2024/03/07 00:40:15;;;;;;;60.40;29.30;;;;;;;9.16;59.49;102506.50;4913154;28;114050;-70
2024/03/07 00:42:43;;;;;;;60.95;30.92;;;;;;;9.12;59.23;102509.22;4907405;28;123922;-69
2024/03/07 00:45:10;;;;;;;65.40;29.77;;;;;;;9.08;59.26;102508.38;4910923;28;122763;-70
2024/03/07 00:47:38;;;;;;;64.90;30.50;;;;;;;9.03;59.69;102504.91;4909244;28;114158;-69
2024/03/07 00:50:09;;;;;;;60.08;30.10;;;;;;;8.99;59.57;102497.91;4912124;28;113885;-70
2024/03/07 00:52:37;;;;;;;61.03;30.67;;;;;;;8.94;59.32;102505.88;4909642;28;124192;-69
2024/03/07 00:55:08;;;;;;;62.42;30.35;;;;;;;8.91;59.28;102502.38;4908433;28;123954;-70
2024/03/07 00:57:36;;;;;;;58.83;30.48;;;;;;;8.88;59.33;102502.44;4908722;28;114312;-70
2024/03/07 01:00:05;;;;;;;63.75;30.15;;;;;;;8.85;59.18;102499.81;4905398;28;115018;-70
2024/03/07 01:02:34;;;;;;;68.22;30.67;;;;;;;8.81;59.59;102492.84;4896473;28;123980;-70
2024/03/07 01:05:01;;;;;;;61.10;30.13;;;;;;;8.79;59.50;102494.63;4896169;28;124319;-70
2024/03/07 01:07:29;;;;;;;59.90;29.73;;;;;;;8.75;59.35;102494.63;4901542;28;114201;-70
2024/03/07 01:10:00;;;;;;;61.40;29.45;;;;;;;8.73;59.37;102491.13;4903661;28;113382;-70
2024/03/07 01:12:30;;;;;;;64.10;30.08;;;;;;;8.70;59.43;102493.84;4913138;28;123958;-70
2024/03/07 01:15:04;;;;;;;58.47;28.73;;;;;;;8.69;59.39;102486.78;4910096;28;124267;-70
2024/03/07 01:17:32;;;;;;;59.53;28.92;;;;;;;8.67;59.44;102485.94;4911049;28;113293;-70
2024/03/07 01:20:02;;;;;;;60.05;29.38;;;;;;;8.64;59.61;102493.88;4904211;28;114242;-69
2024/03/07 01:22:30;;;;;;;61.45;28.95;;;;;;;8.58;59.36;102491.31;4902472;28;124102;-70
2024/03/07 01:24:58;;;;;;;62.50;28.92;;;;;;;8.55;59.52;102491.31;4906244;28;123880;-70
2024/03/07 01:27:25;;;;;;;61.80;28.90;;;;;;;8.52;59.55;102488.75;4898872;28;114386;-70
2024/03/07 01:29:53;;;;;;;62.13;30.10;;;;;;;8.48;59.21;102484.38;4903506;28;114055;-70
2024/03/07 01:32:21;;;;;;;65.75;29.33;;;;;;;8.44;59.70;102482.63;4928235;28;123507;-70
2024/03/07 01:34:48;;;;;;;61.28;29.48;;;;;;;8.43;59.88;102486.19;4905740;28;124473;-70
2024/03/07 01:37:16;;;;;;;61.25;29.25;;;;;;;8.41;59.77;102477.38;4906733;28;114071;-70
2024/03/07 01:39:43;;;;;;;58.90;28.48;;;;;;;8.39;59.38;102483.53;4902245;28;113968;-70
2024/03/07 01:42:10;;;;;;;57.67;28.85;;;;;;;8.36;59.51;102475.66;4907102;28;124777;-70
2024/03/07 01:44:41;;;;;;;62.10;29.38;;;;;;;8.32;59.62;102468.63;4905902;28;124272;-70
2024/03/07 01:47:09;;;;;;;61.95;29.75;;;;;;;8.31;59.70;102466.91;4910316;28;115198;-69
2024/03/07 01:49:39;;;;;;;62.72;29.48;;;;;;;8.30;59.78;102475.69;4905751;28;115088;-69
2024/03/07 01:52:07;;;;;;;62.35;30.20;;;;;;;8.28;59.98;102466.91;4901333;28;124174;-69
2024/03/07 01:54:35;;;;;;;61.55;30.35;;;;;;;8.26;59.68;102460.78;4906235;28;123906;-70
2024/03/07 01:57:04;;;;;;;63.97;30.08;;;;;;;8.23;59.70;102458.19;4906935;28;114569;-70
2024/03/07 01:59:32;;;;;;;57.28;29.45;;;;;;;8.20;59.70;102463.47;4909940;28;114022;-70
2024/03/07 02:02:02;;;;;;;63.63;29.98;;;;;;;8.17;59.84;102458.22;4900928;28;123121;-70
2024/03/07 02:04:29;;;;;;;60.78;29.73;;;;;;;8.16;59.77;102461.75;4904319;28;123918;-70
2024/03/07 02:06:58;;;;;;;65.07;30.25;;;;;;;8.12;59.80;102454.78;4909432;28;114340;-70
2024/03/07 02:09:26;;;;;;;64.65;28.70;;;;;;;8.09;59.68;102455.66;4894354;28;114417;-70
2024/03/07 02:11:54;;;;;;;62.28;30.15;;;;;;;8.08;59.67;102458.28;4906927;28;124368;-70
2024/03/07 02:14:21;;;;;;;62.28;29.55;;;;;;;8.03;59.87;102445.16;4903966;28;124621;-70
2024/03/07 02:16:49;;;;;;;63.47;28.23;;;;;;;8.01;59.77;102451.34;4911788;28;114430;-70
2024/03/07 02:19:17;;;;;;;60.17;29.73;;;;;;;7.97;59.91;102456.63;4921512;28;113371;-70
2024/03/07 02:21:45;;;;;;;62.78;29.50;;;;;;;7.96;59.97;102454.88;4909595;28;123299;-70
2024/03/07 02:24:12;;;;;;;63.28;29.80;;;;;;;7.94;59.82;102456.66;4913658;28;123787;-70
2024/03/07 02:26:40;;;;;;;55.83;28.27;;;;;;;7.93;59.96;102454.03;4906462;28;114821;-70
2024/03/07 02:29:10;;;;;;;63.00;29.92;;;;;;;7.89;60.10;102447.91;4906148;28;112944;-70
2024/03/07 02:31:41;;;;;;;57.55;29.00;;;;;;;7.89;59.86;102447.91;4909019;28;124076;-70
2024/03/07 02:34:09;;;;;;;63.08;29.38;;;;;;;7.88;60.09;102440.88;4907780;28;123144;-69
2024/03/07 02:36:37;;;;;;;61.88;28.83;;;;;;;7.87;59.90;102443.53;4900523;28;115086;-69
2024/03/07 02:39:04;;;;;;;61.42;29.40;;;;;;;7.86;59.94;102447.94;4901175;28;115053;-70
2024/03/07 02:41:34;;;;;;;62.00;29.42;;;;;;;7.84;59.91;102449.72;4925982;28;124058;-70
2024/03/07 02:44:03;;;;;;;55.20;27.90;;;;;;;7.82;60.31;102438.31;4894234;28;123268;-71
2024/03/07 02:46:32;;;;;;;65.85;30.83;;;;;;;7.80;59.84;102442.72;4910697;28;114247;-70
2024/03/07 02:49:00;;;;;;;62.75;30.55;;;;;;;7.79;60.19;102440.94;4902035;28;114000;-70
2024/03/07 02:51:27;;;;;;;65.45;31.27;;;;;;;7.78;59.94;102439.22;4911394;28;124986;-70
2024/03/07 02:53:54;;;;;;;61.95;30.48;;;;;;;7.74;60.25;102437.47;4911097;28;122848;-70
2024/03/07 02:56:22;;;;;;;63.72;30.48;;;;;;;7.71;60.04;102437.50;4920157;28;113185;-70
2024/03/07 02:58:49;;;;;;;63.83;30.55;;;;;;;7.69;60.21;102434.00;4907461;28;114149;-70
2024/03/07 03:01:16;;;;;;;69.57;31.98;;;;;;;7.67;60.12;102430.50;4899007;28;124283;-70
2024/03/07 03:03:45;;;;;;;64.82;30.05;;;;;;;7.65;60.35;102427.88;4903679;28;125894;-70
2024/03/07 03:06:12;;;;;;;64.75;30.70;;;;;;;7.65;60.22;102434.88;4906823;28;113698;-71
2024/03/07 03:08:40;;;;;;;68.35;32.20;;;;;;;7.63;60.09;102434.03;4906475;28;113681;-70
2024/03/07 03:11:09;;;;;;;62.47;29.73;;;;;;;7.58;60.59;102429.66;4905554;28;124104;-70
2024/03/07 03:13:40;;;;;;;65.20;31.48;;;;;;;7.57;60.63;102435.84;4924451;28;124214;-70
2024/03/07 03:16:09;;;;;;;60.38;29.70;;;;;;;7.55;60.46;102427.06;4904067;28;114814;-70
2024/03/07 03:18:36;;;;;;;70.78;31.40;;;;;;;7.55;60.32;102421.81;4908179;28;113873;-70
2024/03/07 03:21:04;;;;;;;64.70;31.52;;;;;;;7.53;60.76;102418.28;4929365;28;123784;-70
2024/03/07 03:23:31;;;;;;;69.13;31.10;;;;;;;7.52;61.01;102411.25;4905309;28;123677;-70
2024/03/07 03:25:59;;;;;;;71.90;31.40;;;;;;;7.53;60.74;102417.41;4905618;28;114971;-70
2024/03/07 03:28:26;;;;;;;69.50;31.05;;;;;;;7.52;60.46;102416.53;4910418;28;113602;-70
2024/03/07 03:30:54;;;;;;;60.25;30.63;;;;;;;7.52;60.68;102416.53;4904252;28;124348;-70
2024/03/07 03:33:21;;;;;;;67.50;30.88;;;;;;;7.50;60.47;102410.41;4900521;28;124433;-70
2024/03/07 03:35:49;;;;;;;62.15;30.50;;;;;;;7.51;60.92;102409.50;4907667;28;113584;-70
2024/03/07 03:38:18;;;;;;;62.38;30.05;;;;;;;7.51;60.59;102409.50;4907965;28;115282;-69
2024/03/07 03:40:45;;;;;;;58.58;28.30;;;;;;;7.53;60.67;102406.84;4906483;28;124342;-69
2024/03/07 03:43:12;;;;;;;59.33;29.50;;;;;;;7.53;60.59;102406.84;4906896;28;124360;-69
2024/03/07 03:45:40;;;;;;;63.92;31.27;;;;;;;7.53;60.46;102406.84;4902253;28;113330;-69
2024/03/07 03:48:07;;;;;;;69.20;30.92;;;;;;;7.50;60.54;102402.50;4912726;28;114132;-69
2024/03/07 03:50:36;;;;;;;58.42;29.67;;;;;;;7.49;60.39;102406.00;4914581;28;124629;-69
2024/03/07 03:53:03;;;;;;;65.97;29.35;;;;;;;7.47;60.72;102405.13;4907142;28;124065;-69
2024/03/07 03:55:32;;;;;;;64.57;30.33;;;;;;;7.45;60.54;102404.28;4910231;28;114290;-69
2024/03/07 03:57:59;;;;;;;65.00;29.50;;;;;;;7.42;60.52;102401.66;4903494;28;114814;-69
2024/03/07 04:00:27;;;;;;;61.22;29.98;;;;;;;7.38;60.40;102402.56;4923182;28;122988;-69
2024/03/07 04:02:54;;;;;;;65.18;30.13;;;;;;;7.34;60.57;102409.63;4905174;28;123880;-69
2024/03/07 04:05:22;;;;;;;63.53;30.27;;;;;;;7.32;60.74;102402.63;4920118;28;114129;-69
2024/03/07 04:07:49;;;;;;;60.33;30.85;;;;;;;7.30;60.80;102404.38;4912119;28;114928;-69
2024/03/07 04:10:18;;;;;;;64.47;32.22;;;;;;;7.30;60.72;102399.13;4899712;28;124131;-69
2024/03/07 04:12:46;;;;;;;62.20;30.20;;;;;;;7.26;60.92;102397.38;4908107;28;124632;-69
2024/03/07 04:15:16;;;;;;;72.95;32.90;;;;;;;7.22;61.02;102392.13;4914690;28;115742;-69
2024/03/07 04:17:46;;;;;;;65.47;32.25;;;;;;;7.20;60.94;102393.91;4922855;28;115273;-69
2024/03/07 04:20:16;;;;;;;66.90;32.15;;;;;;;7.18;60.99;102395.66;4907542;28;124350;-69
2024/03/07 04:22:45;;;;;;;61.83;30.80;;;;;;;7.17;60.78;102388.63;4911559;28;123940;-69
2024/03/07 04:25:14;;;;;;;68.45;32.38;;;;;;;7.15;61.24;102387.78;4909980;28;114309;-69
2024/03/07 04:27:43;;;;;;;67.80;32.25;;;;;;;7.13;61.02;102392.19;4910864;28;114387;-69
2024/03/07 04:30:10;;;;;;;67.75;32.20;;;;;;;7.11;61.11;102391.31;4904702;28;124097;-69
2024/03/07 04:32:38;;;;;;;68.78;31.80;;;;;;;7.09;61.25;102390.44;4915023;28;123995;-69
2024/03/07 04:35:10;;;;;;;67.93;31.40;;;;;;;7.08;61.15;102398.34;4912196;28;114668;-69
2024/03/07 04:37:41;;;;;;;64.83;31.73;;;;;;;7.07;61.35;102386.09;4915251;28;113217;-69
2024/03/07 04:40:15;;;;;;;63.35;30.15;;;;;;;7.07;61.48;102391.34;4905220;28;124044;-69
2024/03/07 04:42:46;;;;;;;65.43;30.30;;;;;;;7.06;61.12;102394.84;4911038;28;123851;-69
2024/03/07 04:45:15;;;;;;;67.97;33.03;;;;;;;7.05;61.31;102391.34;4913050;28;114446;-69
2024/03/07 04:47:44;;;;;;;66.70;32.70;;;;;;;7.04;61.50;102392.22;4912409;28;113926;-69
2024/03/07 04:50:13;;;;;;;67.53;33.13;;;;;;;7.02;61.28;102394.00;4913925;28;124039;-69
2024/03/07 04:52:40;;;;;;;70.00;34.72;;;;;;;7.00;61.45;102393.13;4911216;28;123913;-69
2024/03/07 04:55:10;;;;;;;68.22;32.85;;;;;;;6.99;61.56;102391.41;4912870;28;114368;-69
2024/03/07 04:57:39;;;;;;;70.40;34.75;;;;;;;6.99;61.28;102396.66;4910777;28;114114;-69
2024/03/07 05:00:13;;;;;;;70.00;32.78;;;;;;;6.98;61.65;102397.53;4914045;28;123062;-69
2024/03/07 05:02:43;;;;;;;67.15;33.53;;;;;;;6.99;61.17;102394.03;4908200;28;124213;-69
2024/03/07 05:05:10;;;;;;;70.30;32.72;;;;;;;6.99;61.44;102394.03;4912209;28;115021;-69
2024/03/07 05:07:38;;;;;;;70.30;33.78;;;;;;;7.00;61.66;102396.63;4917354;28;115256;-69
2024/03/07 05:10:07;;;;;;;71.60;32.78;;;;;;;7.02;61.51;102394.84;4902243;28;123861;-69
2024/03/07 05:12:35;;;;;;;61.20;31.92;;;;;;;7.02;61.20;102396.63;4908291;28;123925;-69
2024/03/07 05:15:04;;;;;;;67.72;31.98;;;;;;;7.01;61.43;102402.78;4904315;28;114383;-69
2024/03/07 05:17:34;;;;;;;66.28;32.55;;;;;;;7.00;61.36;102401.03;4902863;28;114560;-69
2024/03/07 05:20:03;;;;;;;67.13;31.95;;;;;;;6.97;61.17;102398.44;4912111;28;123326;-69
2024/03/07 05:22:32;;;;;;;67.25;32.10;;;;;;;6.95;60.99;102402.81;4907951;28;124044;-69
2024/03/07 05:24:59;;;;;;;66.70;31.13;;;;;;;6.94;61.10;102395.81;4901036;28;114105;-69
2024/03/07 05:27:30;;;;;;;61.67;30.90;;;;;;;6.93;61.09;102399.31;4905392;28;113900;-69
2024/03/07 05:29:57;;;;;;;63.22;31.48;;;;;;;6.93;61.12;102399.31;4907771;28;124048;-69
2024/03/07 05:32:26;;;;;;;64.55;30.40;;;;;;;6.94;61.25;102406.34;4912433;28;122903;-69
2024/03/07 05:34:54;;;;;;;60.60;31.55;;;;;;;6.94;60.87;102401.06;4912424;28;115130;-69
2024/03/07 05:37:23;;;;;;;66.57;29.83;;;;;;;6.95;61.30;102397.53;4904216;28;114386;-69
2024/03/07 05:39:51;;;;;;;59.53;26.17;;;;;;;6.93;61.27;102394.94;4907213;28;124515;-69
2024/03/07 05:42:19;;;;;;;47.95;17.55;;;;;;;6.95;61.17;102397.53;4911047;28;123961;-69
2024/03/07 05:44:47;;;;;;;43.55;16.67;;;;;;;6.95;60.93;102401.06;4914377;28;114643;-69
2024/03/07 05:47:15;;;;;;;50.83;17.27;;;;;;;6.95;61.16;102400.16;4912538;28;114580;-69
2024/03/07 05:49:44;;;;;;;43.13;17.05;;;;;;;6.94;60.95;102401.06;4909052;28;98479;-69
2024/03/07 05:52:11;;;;;;;40.95;16.52;;;;;;;6.95;60.69;102392.28;4919555;28;123931;-68
2024/03/07 05:54:39;;;;;;;46.17;15.90;;;;;;;6.96;60.86;102394.03;4904705;28;115599;-68
2024/03/07 05:57:06;;;;;;;40.53;16.05;;;;;;;6.96;60.69;102394.03;4891742;28;115171;-69
2024/03/07 05:59:34;;;;;;;46.60;17.70;;;;;;;6.97;60.93;102395.81;4919883;28;123926;-69
2024/03/07 06:02:02;;;;;;;42.15;17.50;;;;;;;6.96;60.97;102397.53;4907503;28;123926;-69
2024/03/07 06:04:31;;;;;;;36.88;16.40;;;;;;;6.94;60.50;102401.06;4911181;28;113265;-70
2024/03/07 06:06:59;;;;;;;49.20;20.15;;;;;;;6.92;60.37;102397.56;4901260;28;114771;-69
2024/03/07 06:09:27;;;;;;;46.65;19.92;;;;;;;6.89;60.36;102397.56;4896464;28;123861;-70
2024/03/07 06:11:54;;;;;;;48.00;19.98;;;;;;;6.87;60.44;102396.72;4909195;28;123059;-69
2024/03/07 06:14:23;;;;;;;48.55;19.17;;;;;;;6.86;60.47;102402.88;4910011;28;114594;-69
2024/03/07 06:16:51;;;;;;;47.08;20.25;;;;;;;6.83;60.65;102403.75;4907601;28;114829;-70
2024/03/07 06:19:19;;;;;;;51.92;20.90;;;;;;;6.82;60.63;102402.88;4900782;28;122585;-70
2024/03/07 06:21:46;;;;;;;47.78;19.98;;;;;;;6.78;60.22;102398.50;4904682;28;123973;-70
2024/03/07 06:24:18;;;;;;;46.63;20.13;;;;;;;6.77;60.37;102399.38;4911619;28;114689;-69
2024/03/07 06:26:59;;;;;;;49.80;20.45;;;;;;;6.74;60.49;102398.50;4910118;28;114071;-69
2024/03/07 06:29:27;;;;;;;53.45;21.20;;;;;;;6.71;60.43;102394.16;4907263;28;123595;-70
2024/03/07 06:31:55;;;;;;;54.10;20.73;;;;;;;6.70;60.67;102395.00;4906688;28;124905;-70
2024/03/07 06:34:23;;;;;;;46.83;20.55;;;;;;;6.69;60.79;102390.66;4912702;28;113320;-69
2024/03/07 06:36:50;;;;;;;47.42;19.67;;;;;;;6.68;60.57;102388.88;4901786;28;114202;-69
2024/03/07 06:39:21;;;;;;;50.92;21.02;;;;;;;6.67;60.64;102392.41;4907696;28;124304;-69
2024/03/07 06:41:49;;;;;;;48.40;21.20;;;;;;;6.67;60.58;102396.78;4924492;28;122978;-69
2024/03/07 06:44:23;;;;;;;45.83;20.88;;;;;;;6.66;60.65;102401.19;4902645;28;115358;-69
2024/03/07 06:46:50;;;;;;;49.88;20.90;;;;;;;6.66;60.67;102390.66;4894581;28;115628;-69
2024/03/07 06:49:17;;;;;;;52.88;21.67;;;;;;;6.64;60.85;102392.41;4904317;28;124789;-69
2024/03/07 06:51:45;;;;;;;51.75;20.00;;;;;;;6.63;60.73;102396.81;4911447;28;124242;-69
2024/03/07 06:54:12;;;;;;;49.33;20.20;;;;;;;6.65;60.89;102393.28;4906762;28;113764;-69
2024/03/07 06:56:43;;;;;;;49.28;21.05;;;;;;;6.66;61.15;102388.00;4911910;28;113134;-69
2024/03/07 06:59:11;;;;;;;48.47;22.00;;;;;;;6.69;61.02;102390.66;4908983;28;123157;-69
2024/03/07 07:01:42;;;;;;;47.70;21.38;;;;;;;6.72;61.20;102393.25;4918234;28;122823;-69
2024/03/07 07:04:12;;;;;;;49.13;19.80;;;;;;;6.78;61.31;102384.44;4902142;28;115264;-69
2024/03/07 07:06:42;;;;;;;51.78;20.98;;;;;;;6.83;61.43;102394.06;4909761;28;112982;-69
2024/03/07 07:09:10;;;;;;;54.85;21.85;;;;;;;6.88;60.92;102391.44;4907937;28;124034;-69
2024/03/07 07:11:37;;;;;;;45.42;20.63;;;;;;;6.92;61.43;102392.31;4901363;28;124115;-69
2024/03/07 07:14:07;;;;;;;49.80;21.33;;;;;;;6.98;61.52;102387.00;4924398;28;114819;-68
2024/03/07 07:16:35;;;;;;;42.10;20.10;;;;;;;7.05;61.37;102383.44;4912503;28;114205;-69
2024/03/07 07:19:03;;;;;;;43.60;19.98;;;;;;;7.12;61.16;102385.16;4903814;28;124753;-69
2024/03/07 07:21:30;;;;;;;38.70;18.73;;;;;;;7.18;61.21;102385.13;4908982;28;124341;-69
2024/03/07 07:23:57;;;;;;;45.97;19.40;;;;;;;7.25;61.43;102385.09;4907687;28;113446;-68
2024/03/07 07:26:25;;;;;;;37.63;17.60;;;;;;;7.32;61.54;102381.53;4910904;28;114788;-68
2024/03/07 07:28:56;;;;;;;41.80;17.23;;;;;;;7.38;61.40;102386.75;4919299;28;122914;-68
2024/03/07 07:31:24;;;;;;;47.10;19.02;;;;;;;7.45;61.29;102388.47;4910620;28;123893;-68
2024/03/07 07:33:52;;;;;;;39.38;17.20;;;;;;;7.50;61.52;102381.41;4907046;28;115081;-69
2024/03/07 07:36:19;;;;;;;38.22;16.88;;;;;;;7.55;61.13;102374.34;4906572;28;114957;-69
2024/03/07 07:38:46;;;;;;;39.15;18.63;;;;;;;7.62;60.96;102376.94;4906614;28;124010;-69
2024/03/07 07:41:14;;;;;;;42.75;17.92;;;;;;;7.67;61.27;102372.50;4903953;28;122781;-69
2024/03/07 07:43:42;;;;;;;36.90;17.45;;;;;;;7.71;61.20;102374.22;4909133;28;114152;-69
2024/03/07 07:46:10;;;;;;;40.53;17.95;;;;;;;7.74;60.96;102369.78;4905311;28;114320;-68
2024/03/07 07:48:38;;;;;;;37.97;17.35;;;;;;;7.79;60.98;102382.91;4901955;28;124991;-69
2024/03/07 07:51:06;;;;;;;36.90;16.98;;;;;;;7.84;60.64;102375.84;4905993;28;122585;-69
2024/03/07 07:53:34;;;;;;;36.65;16.60;;;;;;;7.87;60.99;102370.53;4908793;28;114227;-69
2024/03/07 07:56:02;;;;;;;33.00;16.10;;;;;;;7.93;60.89;102375.78;4909733;28;114077;-69
2024/03/07 07:58:32;;;;;;;34.67;16.48;;;;;;;7.98;61.11;102384.50;4903750;28;124137;-69
2024/03/07 08:00:59;;;;;;;38.13;16.35;;;;;;;8.05;61.10;102379.19;4904814;28;124891;-70
2024/03/07 08:03:27;;;;;;;35.40;16.77;;;;;;;8.09;60.91;102380.91;4902431;28;114301;-70
2024/03/07 08:05:54;;;;;;;38.28;17.23;;;;;;;8.13;60.66;102377.34;4906857;28;114153;-70
2024/03/07 08:08:22;;;;;;;35.05;17.05;;;;;;;8.17;60.72;102379.03;4922570;28;123754;-70
2024/03/07 08:10:50;;;;;;;34.72;17.20;;;;;;;8.22;60.55;102379.88;4911903;28;124467;-70
2024/03/07 08:13:17;;;;;;;37.90;16.77;;;;;;;8.26;60.50;102389.50;4913809;28;114705;-70
2024/03/07 08:15:45;;;;;;;32.25;15.70;;;;;;;8.29;60.56;102389.50;4909860;28;114104;-70
2024/03/07 08:18:12;;;;;;;31.70;15.85;;;;;;;8.34;60.66;102387.69;4910200;28;124170;-70
2024/03/07 08:20:40;;;;;;;31.48;15.95;;;;;;;8.41;60.53;102382.31;4914305;28;124021;-70
2024/03/07 08:23:09;;;;;;;34.63;16.98;;;;;;;8.47;60.21;102382.28;4905943;28;114336;-70
2024/03/07 08:25:39;;;;;;;29.73;14.30;;;;;;;8.50;60.11;102383.13;4912203;28;115709;-70
2024/03/07 08:28:07;;;;;;;28.33;13.68;;;;;;;8.54;60.00;102369.00;4912839;28;124095;-70
2024/03/07 08:30:35;;;;;;;32.85;15.27;;;;;;;8.58;60.02;102380.38;4908991;28;123994;-70
2024/03/07 08:33:04;;;;;;;33.17;14.30;;;;;;;8.60;60.10;102373.31;4911767;28;114370;-70
2024/03/07 08:35:33;;;;;;;28.92;13.52;;;;;;;8.65;60.06;102374.16;4916607;28;113166;-70
2024/03/07 08:38:03;;;;;;;28.63;14.10;;;;;;;8.71;60.17;102371.41;4908641;28;124031;-70
2024/03/07 08:40:32;;;;;;;30.60;14.70;;;;;;;8.78;59.78;102366.94;4911942;28;124079;-70
2024/03/07 08:43:02;;;;;;;28.52;14.15;;;;;;;8.85;59.80;102378.28;4911156;28;114829;-70
2024/03/07 08:45:33;;;;;;;32.85;14.43;;;;;;;8.88;59.54;102371.19;4921841;28;113397;-70
2024/03/07 08:48:09;;;;;;;27.55;13.93;;;;;;;8.96;59.77;102376.38;4912266;28;124037;-70
2024/03/07 08:50:37;;;;;;;29.38;13.45;;;;;;;9.03;60.06;102367.47;4910725;28;124523;-70
2024/03/07 08:53:07;;;;;;;27.42;12.90;;;;;;;9.11;59.65;102376.16;4905175;28;113938;-70
2024/03/07 08:55:35;;;;;;;28.23;14.55;;;;;;;9.19;59.66;102368.13;4911839;28;113344;-70
2024/03/07 08:58:06;;;;;;;29.88;13.88;;;;;;;9.27;59.63;102365.38;4895519;28;124523;-70
2024/03/07 09:00:35;;;;;;;23.88;13.20;;;;;;;9.33;59.53;102354.72;4907841;28;124520;-70
2024/03/07 09:03:09;;;;;;;27.40;13.88;;;;;;;9.41;59.15;102349.31;4913773;28;115286;-70
2024/03/07 09:05:39;;;;;;;26.45;13.88;;;;;;;9.47;59.01;102347.41;4906419;28;113897;-70
2024/03/07 09:08:07;;;;;;;27.67;13.68;;;;;;;9.55;59.07;102356.13;4898254;28;123072;-70
2024/03/07 09:10:35;;;;;;;26.40;13.55;;;;;;;9.66;59.08;102352.41;4909382;28;124109;-70
2024/03/07 09:13:03;;;;;;;24.75;13.38;;;;;;;9.74;58.76;102355.81;4909703;28;115172;-69
2024/03/07 09:15:31;;;;;;;28.25;13.65;;;;;;;9.80;58.54;102339.81;4910629;28;115372;-69
2024/03/07 09:17:58;;;;;;;22.98;11.80;;;;;;;9.86;58.47;102345.00;4912135;28;124058;-70
2024/03/07 09:20:26;;;;;;;26.40;12.27;;;;;;;9.96;58.73;102344.84;4910066;28;124000;-70
2024/03/07 09:22:54;;;;;;;26.13;12.63;;;;;;;10.07;58.82;102342.88;4911938;28;115064;-70
2024/03/07 09:25:24;;;;;;;25.58;12.98;;;;;;;10.18;58.38;102340.88;4907371;28;113419;-70
2024/03/07 09:27:54;;;;;;;27.50;13.35;;;;;;;10.27;58.43;102334.56;4901378;28;124176;-70
2024/03/07 09:30:25;;;;;;;26.40;12.18;;;;;;;10.36;58.39;102338.81;4904016;28;123903;-70
2024/03/07 09:32:57;;;;;;;23.75;12.73;;;;;;;10.44;58.12;102328.94;4900453;28;114393;-70
2024/03/07 09:35:25;;;;;;;24.73;11.85;;;;;;;10.51;58.13;102327.91;4910619;28;113622;-69
2024/03/07 09:37:54;;;;;;;24.98;11.93;;;;;;;10.61;58.17;102329.47;4911647;28;124366;-70
2024/03/07 09:40:25;;;;;;;26.02;12.25;;;;;;;10.70;58.05;102329.25;4904895;28;124405;-70
2024/03/07 09:42:56;;;;;;;21.25;11.02;;;;;;;10.80;57.84;102323.75;4918900;28;113409;-69
2024/03/07 09:45:29;;;;;;;22.05;11.20;;;;;;;10.87;57.81;102328.88;4915213;28;113081;-70
2024/03/07 09:47:57;;;;;;;22.52;10.82;;;;;;;10.95;57.74;102336.66;4904421;28;124125;-70
2024/03/07 09:50:29;;;;;;;22.70;10.82;;;;;;;11.03;57.55;102331.19;4922587;28;123104;-70
2024/03/07 09:52:59;;;;;;;23.85;11.15;;;;;;;11.09;57.32;102326.63;4909756;28;114693;-70
2024/03/07 09:55:27;;;;;;;22.67;11.43;;;;;;;11.17;57.41;102328.19;4906011;28;113959;-70
2024/03/07 09:57:58;;;;;;;25.52;11.48;;;;;;;11.28;57.33;102331.47;4921280;28;124069;-69
2024/03/07 10:00:27;;;;;;;23.00;11.50;;;;;;;11.35;57.11;102326.91;4912008;28;122901;-69
2024/03/07 10:03:05;;;;;;;19.80;10.23;;;;;;;11.44;56.80;102327.53;4905441;28;115157;-70
2024/03/07 10:05:32;;;;;;;23.63;11.63;;;;;;;11.53;56.91;102325.56;4907032;28;115411;-69
2024/03/07 10:08:01;;;;;;;22.58;11.65;;;;;;;11.58;56.70;102319.22;4903930;28;124763;-69
2024/03/07 10:10:30;;;;;;;21.40;11.20;;;;;;;11.63;56.58;102325.28;4900752;28;123870;-69
2024/03/07 10:12:58;;;;;;;21.02;10.48;;;;;;;11.69;56.55;102332.22;4925888;28;114175;-70
2024/03/07 10:15:31;;;;;;;18.58;9.68;;;;;;;11.77;56.38;102310.78;4921209;28;114058;-70
2024/03/07 10:18:00;;;;;;;20.77;10.77;;;;;;;11.84;56.22;102315.91;4906075;28;124908;-69
2024/03/07 10:20:29;;;;;;;24.60;10.77;;;;;;;11.91;56.16;102310.47;4908911;28;124193;-69
2024/03/07 10:22:57;;;;;;;22.08;10.85;;;;;;;11.96;55.73;102308.53;4912972;28;113038;-69
2024/03/07 10:25:27;;;;;;;20.10;10.00;;;;;;;12.02;55.88;102303.09;4905527;28;114716;-70
2024/03/07 10:27:57;;;;;;;17.80;10.10;;;;;;;12.11;55.84;102300.19;4907699;28;124861;-70
2024/03/07 10:30:27;;;;;;;24.10;10.35;;;;;;;12.20;55.73;102302.53;4911575;28;122850;-70
2024/03/07 10:32:57;;;;;;;21.30;10.70;;;;;;;12.33;55.76;102296.91;4897555;28;114403;-70
2024/03/07 10:35:29;;;;;;;21.58;10.60;;;;;;;12.42;55.27;102291.31;4900764;28;114251;-70
2024/03/07 10:38:06;;;;;;;21.67;10.45;;;;;;;12.48;55.16;102280.50;4908137;28;123890;-70
2024/03/07 10:40:40;;;;;;;19.00;9.63;;;;;;;12.52;55.14;102282.13;4901974;28;123721;-70
2024/03/07 10:43:14;;;;;;;18.38;9.65;;;;;;;12.59;54.88;102283.69;4908013;28;114355;-69
2024/03/07 10:45:47;;;;;;;16.83;9.53;;;;;;;12.66;54.63;102277.28;4911833;28;113352;-70
2024/03/07 10:48:29;;;;;;;18.85;9.88;;;;;;;12.74;54.32;102289.47;4899615;28;124246;-69
2024/03/07 10:51:13;;;;;;;19.73;9.68;;;;;;;12.78;54.38;102283.16;4909768;28;124221;-70
2024/03/07 10:54:01;;;;;;;19.30;9.32;;;;;;;12.84;54.37;102282.94;4910785;28;115225;-70
2024/03/07 10:56:54;;;;;;;19.42;9.80;;;;;;;12.90;54.23;102282.75;4905402;28;113458;-70
2024/03/07 10:59:27;;;;;;;18.63;9.40;;;;;;;12.93;54.19;102280.00;4905069;28;124110;-70
2024/03/07 11:02:07;;;;;;;20.42;10.00;;;;;;;12.97;53.98;102278.13;4910471;28;123867;-69
2024/03/07 11:04:35;;;;;;;18.90;9.55;;;;;;;12.99;53.77;102277.13;4906739;28;114844;-69
2024/03/07 11:07:02;;;;;;;20.85;10.73;;;;;;;12.98;53.55;102275.41;4905774;28;115444;-69
2024/03/07 11:09:33;;;;;;;19.33;9.52;;;;;;;12.95;53.13;102270.19;4907172;28;123770;-69
2024/03/07 11:12:03;;;;;;;18.70;9.63;;;;;;;12.92;53.08;102275.63;4910149;28;122980;-69
2024/03/07 11:14:34;;;;;;;20.02;9.30;;;;;;;12.89;53.19;102273.03;4903580;28;114212;-69
2024/03/07 11:17:03;;;;;;;19.50;10.30;;;;;;;12.88;53.09;102279.25;4906075;28;113955;-69